Impacts TAF Board INFO
FOR SITUATIONAL AWARENESS. NOT TO BE USED FOR FLIGHT PLANNING PURPOSES.
IDs:

KSTL - St Louis/Lambert Int, MO, US

Issued at 1722 UTC 25 Feb 2018
Updated at 1746 UTC 25 Feb 2018
Potential Impact None Slight Moderate High
Time1651Z 25/18Z 25/19Z 25/20Z 25/21Z 25/22Z 25/23Z 26/00Z 26/01Z 26/02Z 26/03Z 26/04Z 26/05Z 26/06Z>>
Type OBS PRVL PRVL PRVL PRVL PRVL PRVL PRVL PRVL PRVL PRVL PRVL PRVL PRVL
VIS 10 >6 >6 >6 >6 >6 >6 >6 >6 >6 >6 >6 >6 >6
CIG -- -- -- -- -- -- -- -- -- -- -- -- -- --
Cover FEW SKC SKC SKC SKC SKC SKC SKC SKC SKC SKC SKC SKC SKC
FltCat VFR VFR VFR VFR VFR VFR VFR VFR VFR VFR VFR VFR VFR VFR
WX -- -- -- -- -- -- -- -- -- -- -- -- -- --
WDir VRB 240 240 240 240 240 240 240 VRB VRB VRB VRB VRB VRB
WSpd 6 6 6 6 6 6 6 6 0 0 0 0 0 0
WGst -- -- -- -- -- -- -- -- -- -- -- -- -- --

Raw TAF
KSTL 251722Z 2518/2624 24006KT P6SM SKC
  FM260100 00000KT P6SM SKC


Raw METAR
KSTL 251651Z VRB06KT 10SM FEW250 07/M03 A3012 RMK AO2 SLP202 T00671028
KSTL 251551Z 27006KT 10SM FEW035 FEW250 06/M02 A3010 RMK AO2 SLP197 T00561017
KSTL 251451Z 26011KT 10SM FEW035 FEW250 04/M01 A3007 RMK AO2 SLP184 T00391011 51028

METAR Board
Radar Display
Forecast Discussion

FOR SITUATIONAL AWARENESS. NOT TO BE USED FOR FLIGHT PLANNING PURPOSES.